Time;durP1;ratioP1;P1;durP2;ratioP2;P2;SDS_P1;SDS_P2;PMS_P1;PMS_P2;Temp;Humidity;BMP_temperature;BMP_pressure;BME280_temperature;BME280_humidity;BME280_pressure;Samples;Min_cycle;Max_cycle;Signal;HPM_P1;HPM_P2
2023/07/18 00:00:53;;;;;;;2.60;2.40;;;21.10;64.50;;;;;;5121635;27;20212;-85
2023/07/18 00:03:19;;;;;;;2.33;2.13;;;21.10;64.50;;;;;;5139358;27;20159;-84
2023/07/18 00:05:45;;;;;;;2.42;2.22;;;21.10;64.40;;;;;;5138825;27;20158;-82
2023/07/18 00:08:11;;;;;;;2.45;2.20;;;21.10;64.40;;;;;;5157303;27;20156;-87
2023/07/18 00:10:37;;;;;;;2.10;1.90;;;21.10;64.50;;;;;;5157387;27;20155;-83
2023/07/18 00:13:08;;;;;;;2.50;2.30;;;21.10;64.50;;;;;;5157020;27;20190;-86
2023/07/18 00:15:34;;;;;;;2.42;2.22;;;21.10;64.50;;;;;;5104258;27;20186;-83
2023/07/18 00:18:01;;;;;;;2.47;2.28;;;21.00;64.40;;;;;;5138467;27;20162;-86
2023/07/18 00:20:28;;;;;;;2.38;2.17;;;21.10;64.50;;;;;;5121492;27;20167;-86
2023/07/18 00:22:54;;;;;;;2.80;2.50;;;21.10;64.50;;;;;;5138590;27;20580;-85
2023/07/18 00:25:20;;;;;;;2.38;2.17;;;21.10;64.50;;;;;;5156894;27;20230;-83
2023/07/18 00:27:49;;;;;;;2.50;2.17;;;21.20;64.60;;;;;;5138418;27;20151;-86
2023/07/18 00:30:20;;;;;;;2.40;2.20;;;21.00;64.50;;;;;;5138224;27;20193;-85
2023/07/18 00:32:46;;;;;;;2.30;2.10;;;21.10;64.50;;;;;;5086789;27;20210;-85
2023/07/18 00:35:13;;;;;;;2.30;2.08;;;21.10;64.50;;;;;;5138109;27;20162;-87
2023/07/18 00:37:39;;;;;;;2.60;2.40;;;21.10;64.50;;;;;;5138711;27;20147;-85
2023/07/18 00:40:10;;;;;;;2.55;2.35;;;21.10;64.50;;;;;;5156664;27;20155;-84
2023/07/18 00:42:37;;;;;;;2.50;2.30;;;21.10;64.50;;;;;;5138257;27;20185;-86
2023/07/18 00:45:05;;;;;;;2.40;2.20;;;21.10;64.50;;;;;;5138054;27;20565;-87
2023/07/18 00:47:31;;;;;;;2.13;1.95;;;21.10;64.50;;;;;;5137901;27;20170;-83
2023/07/18 00:49:56;;;;;;;2.50;2.30;;;21.10;64.50;;;;;;5117140;27;20662;-82
2023/07/18 00:52:22;;;;;;;2.13;2.00;;;21.10;64.50;;;;;;5134255;27;20190;-84
2023/07/18 00:54:48;;;;;;;2.72;2.53;;;21.10;64.60;;;;;;5135628;27;20151;-83
2023/07/18 00:57:14;;;;;;;2.30;2.10;;;21.10;64.50;;;;;;5134258;27;20163;-82
2023/07/18 00:59:40;;;;;;;2.33;2.17;;;21.10;64.50;;;;;;5117375;27;20169;-83
2023/07/18 01:02:06;;;;;;;1.98;1.88;;;21.10;64.50;;;;;;5116951;27;20250;-84
2023/07/18 01:04:32;;;;;;;3.05;2.30;;;21.10;64.50;;;;;;5134206;27;20638;-82
2023/07/18 01:07:04;;;;;;;2.78;2.20;;;21.00;64.50;;;;;;5135389;27;20179;-83
2023/07/18 01:09:31;;;;;;;2.33;2.13;;;21.10;64.50;;;;;;5083088;27;20187;-84
2023/07/18 01:12:02;;;;;;;2.40;2.20;;;21.10;64.60;;;;;;5133977;27;20205;-83
2023/07/18 01:14:33;;;;;;;2.60;2.30;;;21.10;64.50;;;;;;5082570;27;20544;-86
2023/07/18 01:16:58;;;;;;;2.70;2.20;;;21.10;64.50;;;;;;5099529;27;20232;-82
2023/07/18 01:19:24;;;;;;;2.63;2.42;;;21.00;64.50;;;;;;5135112;27;20152;-85
2023/07/18 01:21:54;;;;;;;2.50;2.30;;;21.00;64.50;;;;;;5133941;27;20173;-86
2023/07/18 01:24:21;;;;;;;2.60;2.38;;;21.10;64.60;;;;;;5099212;27;20179;-87
2023/07/18 01:26:52;;;;;;;2.40;2.20;;;21.10;64.60;;;;;;5133901;27;20669;-86
2023/07/18 01:29:18;;;;;;;2.50;2.30;;;21.10;64.60;;;;;;5082680;27;20206;-87
2023/07/18 01:31:44;;;;;;;2.25;2.00;;;21.10;64.50;;;;;;5134872;27;20222;-86
2023/07/18 01:34:14;;;;;;;2.92;2.63;;;21.10;64.60;;;;;;5134863;27;20209;-85
2023/07/18 01:36:44;;;;;;;2.63;2.13;;;21.00;64.50;;;;;;5134825;27;20148;-85
2023/07/18 01:39:10;;;;;;;2.08;1.98;;;21.00;64.60;;;;;;5099336;27;20241;-83
2023/07/18 01:41:36;;;;;;;2.20;2.00;;;21.00;64.60;;;;;;5133512;27;20234;-86
2023/07/18 01:44:02;;;;;;;2.28;2.10;;;21.00;64.60;;;;;;5134692;27;20163;-82
2023/07/18 01:46:28;;;;;;;2.30;2.10;;;21.00;64.60;;;;;;5116268;27;20178;-84
2023/07/18 01:48:54;;;;;;;2.25;2.05;;;21.10;64.60;;;;;;5133352;27;20262;-88
2023/07/18 01:51:20;;;;;;;2.60;2.40;;;21.00;64.50;;;;;;5150513;27;20335;-85
2023/07/18 01:53:46;;;;;;;2.35;2.15;;;21.10;64.60;;;;;;5136515;27;20190;-84
2023/07/18 01:56:11;;;;;;;2.33;2.13;;;21.00;64.60;;;;;;5136243;27;20237;-85
2023/07/18 01:58:37;;;;;;;2.47;2.28;;;21.10;64.60;;;;;;5155169;27;20155;-88
2023/07/18 02:01:03;;;;;;;2.50;2.30;;;21.00;64.60;;;;;;5155381;27;20154;-87
2023/07/18 02:03:29;;;;;;;2.38;2.17;;;21.00;64.60;;;;;;5155489;27;20613;-87
2023/07/18 02:05:55;;;;;;;2.40;2.20;;;21.10;64.60;;;;;;5155039;27;20196;-86
2023/07/18 02:08:21;;;;;;;2.40;2.20;;;21.10;64.60;;;;;;5155443;27;20155;-84
2023/07/18 02:10:48;;;;;;;2.30;2.10;;;21.00;64.50;;;;;;5136664;27;20159;-87
2023/07/18 02:13:14;;;;;;;2.38;2.17;;;21.10;64.60;;;;;;5119327;27;20190;-83
2023/07/18 02:15:40;;;;;;;2.40;2.20;;;21.00;64.50;;;;;;5119319;27;20158;-85
2023/07/18 02:18:06;;;;;;;2.42;2.22;;;21.00;64.60;;;;;;5155542;27;20241;-82
2023/07/18 02:20:32;;;;;;;2.15;1.95;;;21.10;64.60;;;;;;5154876;27;20186;-86
2023/07/18 02:23:00;;;;;;;2.47;2.28;;;21.00;64.60;;;;;;5136705;27;20510;-84
2023/07/18 02:25:26;;;;;;;2.55;2.35;;;21.10;64.60;;;;;;5155407;27;20223;-84
2023/07/18 02:27:52;;;;;;;2.40;2.20;;;21.00;64.50;;;;;;5154907;27;20227;-82
2023/07/18 02:30:18;;;;;;;2.17;2.00;;;21.00;64.60;;;;;;5155157;27;20610;-84
2023/07/18 02:32:44;;;;;;;2.40;2.20;;;21.00;64.60;;;;;;5154687;27;20216;-86
2023/07/18 02:35:17;;;;;;;2.60;2.40;;;21.00;64.60;;;;;;5119107;27;20155;-83
2023/07/18 02:37:47;;;;;;;2.15;2.00;;;21.00;64.60;;;;;;5086923;27;20179;-81
2023/07/18 02:40:14;;;;;;;2.10;2.00;;;21.00;64.60;;;;;;5084932;27;20178;-84
2023/07/18 02:42:40;;;;;;;2.40;2.20;;;21.00;64.60;;;;;;5136348;27;20159;-84
2023/07/18 02:45:08;;;;;;;2.40;2.20;;;21.00;64.60;;;;;;5154795;27;20586;-82
2023/07/18 02:47:34;;;;;;;2.50;2.30;;;21.00;64.60;;;;;;5155013;27;20143;-84
2023/07/18 02:50:00;;;;;;;2.30;2.10;;;21.00;64.60;;;;;;5135975;27;20234;-86
2023/07/18 02:52:26;;;;;;;2.33;2.13;;;21.00;64.60;;;;;;5136137;27;20277;-86
2023/07/18 02:54:56;;;;;;;2.40;2.20;;;21.00;64.60;;;;;;5118888;27;20163;-86
2023/07/18 02:57:22;;;;;;;2.42;2.22;;;21.00;64.60;;;;;;5084934;27;20647;-85
2023/07/18 02:59:48;;;;;;;2.40;2.20;;;21.10;64.60;;;;;;5136079;27;20194;-83
2023/07/18 03:02:18;;;;;;;2.35;2.15;;;21.00;64.60;;;;;;5135930;27;20166;-85
2023/07/18 03:04:47;;;;;;;2.35;2.15;;;21.00;64.60;;;;;;5101495;27;20174;-83
2023/07/18 03:07:13;;;;;;;2.30;2.10;;;21.00;64.60;;;;;;5157842;27;20158;-85
2023/07/18 03:09:39;;;;;;;2.50;2.30;;;21.00;64.60;;;;;;5139804;27;20166;-86
2023/07/18 03:12:10;;;;;;;2.40;2.20;;;21.00;65.40;;;;;;5122577;27;20762;-84
2023/07/18 03:14:36;;;;;;;2.83;2.50;;;21.00;64.60;;;;;;5088604;27;20181;-83
2023/07/18 03:17:02;;;;;;;2.40;2.20;;;21.00;64.60;;;;;;5139652;27;20159;-82
2023/07/18 03:19:31;;;;;;;2.63;2.15;;;21.00;64.60;;;;;;5158557;27;20627;-87
2023/07/18 03:21:57;;;;;;;2.00;1.90;;;21.00;64.60;;;;;;5139731;27;20167;-84
2023/07/18 03:24:23;;;;;;;2.03;1.92;;;21.00;64.60;;;;;;5158289;27;20208;-86
2023/07/18 03:26:49;;;;;;;2.03;1.92;;;20.90;64.50;;;;;;5157995;27;20147;-84
2023/07/18 03:29:15;;;;;;;2.22;2.03;;;21.00;64.60;;;;;;5139711;27;20158;-84
2023/07/18 03:31:42;;;;;;;2.67;2.40;;;21.00;64.60;;;;;;5122163;27;20155;-85
2023/07/18 03:34:12;;;;;;;2.25;2.05;;;21.00;64.60;;;;;;5139657;27;20151;-85
2023/07/18 03:36:38;;;;;;;2.40;2.20;;;21.00;64.60;;;;;;5071559;27;20189;-86
2023/07/18 03:39:05;;;;;;;2.08;1.88;;;20.90;64.60;;;;;;5139551;27;20155;-85
2023/07/18 03:41:35;;;;;;;2.40;2.20;;;21.00;64.70;;;;;;5139546;27;20150;-87
2023/07/18 03:44:02;;;;;;;2.33;2.13;;;21.00;64.70;;;;;;5104476;27;20179;-83
2023/07/18 03:46:28;;;;;;;2.20;2.00;;;21.00;64.70;;;;;;5139109;27;20636;-82
2023/07/18 03:48:54;;;;;;;2.22;2.03;;;21.00;64.70;;;;;;5157594;27;20147;-83
2023/07/18 03:51:20;;;;;;;2.53;2.30;;;21.00;64.70;;;;;;5121694;27;20222;-84
2023/07/18 03:53:46;;;;;;;2.80;2.30;;;21.00;64.70;;;;;;5139284;27;20194;-85
2023/07/18 03:56:12;;;;;;;2.50;2.30;;;21.00;64.60;;;;;;5157463;27;20155;-85
2023/07/18 03:58:38;;;;;;;2.17;1.98;;;21.00;64.70;;;;;;5139407;27;20186;-84
2023/07/18 04:01:08;;;;;;;2.30;2.10;;;21.00;64.60;;;;;;5157305;27;20155;-85
2023/07/18 04:03:34;;;;;;;2.38;2.17;;;21.00;64.60;;;;;;5139018;27;20177;-83
2023/07/18 04:06:01;;;;;;;2.10;1.90;;;21.10;64.70;;;;;;5121970;27;20151;-86
2023/07/18 04:08:28;;;;;;;2.20;2.00;;;21.00;64.70;;;;;;5157333;27;20162;-86
2023/07/18 04:10:55;;;;;;;2.53;2.15;;;21.00;64.70;;;;;;5139299;27;20143;-85
2023/07/18 04:13:21;;;;;;;2.10;2.00;;;20.90;64.60;;;;;;5138525;27;20193;-86
2023/07/18 04:15:47;;;;;;;2.45;2.10;;;21.00;64.70;;;;;;5139046;27;20222;-82
2023/07/18 04:18:16;;;;;;;2.40;2.20;;;21.00;64.70;;;;;;5156554;27;20150;-84
2023/07/18 04:20:42;;;;;;;2.30;2.10;;;21.00;64.70;;;;;;5070317;27;20223;-85
2023/07/18 04:23:13;;;;;;;3.20;2.20;;;21.00;64.70;;;;;;5138461;27;20604;-88
2023/07/18 04:25:54;;;;;;;2.42;2.22;;;21.00;64.70;;;;;;5104322;27;20179;-87
2023/07/18 04:28:25;;;;;;;2.40;2.20;;;21.00;64.60;;;;;;5121490;27;20605;-84
2023/07/18 04:30:51;;;;;;;2.50;2.30;;;21.00;64.60;;;;;;5070546;27;20174;-82
2023/07/18 04:33:17;;;;;;;2.33;2.13;;;21.00;64.70;;;;;;5138515;27;20197;-86
2023/07/18 04:35:47;;;;;;;2.28;2.08;;;21.00;64.60;;;;;;5156758;27;20158;-84
2023/07/18 04:38:13;;;;;;;2.47;2.28;;;21.00;64.60;;;;;;5086265;27;20532;-84
2023/07/18 04:40:40;;;;;;;2.30;2.10;;;21.00;64.70;;;;;;5120909;27;20617;-86
2023/07/18 04:43:07;;;;;;;2.40;2.20;;;21.00;64.70;;;;;;5120963;27;20170;-84
2023/07/18 04:45:32;;;;;;;2.28;2.08;;;21.00;64.60;;;;;;5138174;27;20241;-85
2023/07/18 04:48:03;;;;;;;2.30;2.10;;;20.90;64.60;;;;;;5137945;27;20374;-84
2023/07/18 04:50:28;;;;;;;2.17;1.98;;;21.00;64.70;;;;;;5103229;27;20274;-84
2023/07/18 04:52:58;;;;;;;2.25;2.00;;;21.00;64.70;;;;;;5137733;27;20194;-84
2023/07/18 04:55:25;;;;;;;2.53;2.30;;;20.90;64.60;;;;;;5086150;27;20185;-85
2023/07/18 04:57:51;;;;;;;2.50;2.30;;;20.90;64.60;;;;;;5137938;27;20489;-82
2023/07/18 05:00:17;;;;;;;2.35;2.00;;;21.00;64.70;;;;;;5120589;27;20522;-83
2023/07/18 05:02:43;;;;;;;1.98;1.88;;;20.90;64.70;;;;;;5156172;27;20151;-85
2023/07/18 05:05:09;;;;;;;2.35;2.05;;;21.00;64.70;;;;;;5137807;27;20234;-83
2023/07/18 05:07:35;;;;;;;2.30;2.10;;;21.00;64.70;;;;;;5156222;27;20611;-82
2023/07/18 05:10:05;;;;;;;2.30;2.10;;;21.00;64.70;;;;;;5120358;27;20190;-83
2023/07/18 05:12:31;;;;;;;2.40;2.20;;;21.00;64.60;;;;;;5102917;27;20305;-85
2023/07/18 05:14:56;;;;;;;2.22;2.00;;;21.00;64.60;;;;;;5155975;27;20276;-83
2023/07/18 05:17:22;;;;;;;2.40;2.20;;;21.00;64.70;;;;;;5137333;27;20248;-85
2023/07/18 05:19:48;;;;;;;2.28;2.08;;;21.00;64.70;;;;;;5120152;27;20166;-81
2023/07/18 05:22:14;;;;;;;2.15;2.00;;;21.10;64.70;;;;;;5137600;27;20155;-84
2023/07/18 05:24:40;;;;;;;2.75;2.25;;;21.00;64.60;;;;;;5155754;27;20185;-83
2023/07/18 05:27:07;;;;;;;2.30;2.10;;;21.00;64.60;;;;;;5120163;27;20163;-84
2023/07/18 05:29:33;;;;;;;2.30;2.10;;;21.00;64.70;;;;;;5136596;27;20158;-85
2023/07/18 05:31:59;;;;;;;2.70;2.00;;;21.00;64.60;;;;;;5137037;27;20197;-84
2023/07/18 05:34:24;;;;;;;2.30;2.10;;;21.00;64.60;;;;;;5137043;27;20234;-85
2023/07/18 05:36:50;;;;;;;2.47;2.28;;;21.00;64.60;;;;;;5136965;27;20245;-83
2023/07/18 05:39:16;;;;;;;2.25;2.05;;;21.00;64.60;;;;;;5137370;27;20520;-85
2023/07/18 05:41:42;;;;;;;2.38;2.17;;;21.00;64.60;;;;;;5155331;27;20166;-86
2023/07/18 05:44:08;;;;;;;2.30;2.05;;;21.00;64.50;;;;;;5119840;27;20683;-83
2023/07/18 05:46:34;;;;;;;2.30;1.92;;;21.00;64.50;;;;;;5120057;27;20159;-86
2023/07/18 05:48:59;;;;;;;2.40;2.00;;;21.00;64.60;;;;;;5119803;27;20230;-84
2023/07/18 05:51:25;;;;;;;1.80;1.70;;;21.00;64.70;;;;;;5119471;27;20735;-86
2023/07/18 05:53:51;;;;;;;2.00;1.88;;;21.00;64.70;;;;;;5136653;27;20250;-84
2023/07/18 05:56:17;;;;;;;2.10;1.90;;;20.90;65.10;;;;;;5136695;27;20636;-85
2023/07/18 05:58:43;;;;;;;2.20;2.00;;;21.00;65.20;;;;;;5155211;27;20147;-84
2023/07/18 06:01:12;;;;;;;2.00;1.80;;;21.00;65.20;;;;;;5155082;27;20520;-84
2023/07/18 06:03:38;;;;;;;1.95;1.80;;;20.90;65.10;;;;;;5155094;27;20163;-84
2023/07/18 06:06:05;;;;;;;2.08;1.50;;;20.90;65.10;;;;;;5136656;27;20199;-82
2023/07/18 06:08:31;;;;;;;1.95;1.75;;;20.90;66.10;;;;;;5136672;27;20151;-86
2023/07/18 06:10:56;;;;;;;2.03;1.88;;;20.90;65.40;;;;;;5119436;27;20146;-86
2023/07/18 06:13:23;;;;;;;1.55;1.45;;;20.90;65.20;;;;;;5136461;27;20708;-83
2023/07/18 06:15:50;;;;;;;2.03;1.83;;;20.90;65.20;;;;;;5136595;27;20151;-86
2023/07/18 06:18:16;;;;;;;1.70;1.60;;;20.90;65.40;;;;;;5119863;27;20159;-85
2023/07/18 06:20:43;;;;;;;1.70;1.60;;;20.90;65.40;;;;;;5136522;27;20154;-83
2023/07/18 06:23:09;;;;;;;1.73;1.60;;;20.90;65.40;;;;;;5102541;27;20163;-83
2023/07/18 06:25:35;;;;;;;1.90;1.80;;;20.90;65.20;;;;;;5136637;27;20675;-83
2023/07/18 06:28:02;;;;;;;1.75;1.60;;;20.90;65.20;;;;;;5136509;27;20182;-83
2023/07/18 06:30:33;;;;;;;1.63;1.52;;;20.90;65.20;;;;;;5156144;27;20195;-84
2023/07/18 06:32:59;;;;;;;1.90;1.67;;;20.90;65.10;;;;;;5088026;27;20217;-84
2023/07/18 06:35:29;;;;;;;1.52;1.42;;;20.80;65.10;;;;;;5120180;27;20158;-86
2023/07/18 06:37:55;;;;;;;1.60;1.50;;;20.90;65.10;;;;;;5085226;27;20189;-85
2023/07/18 06:40:21;;;;;;;1.83;1.67;;;20.90;65.20;;;;;;5136870;27;20230;-85
2023/07/18 06:42:47;;;;;;;1.73;1.60;;;20.80;65.10;;;;;;5140523;27;20211;-85
2023/07/18 06:45:16;;;;;;;1.63;1.52;;;20.90;65.00;;;;;;5158970;27;20151;-85
2023/07/18 06:47:46;;;;;;;1.50;1.40;;;20.90;65.00;;;;;;5106226;27;20179;-84
2023/07/18 06:50:13;;;;;;;1.80;1.30;;;20.90;64.90;;;;;;5064505;28;20222;-87
2023/07/18 06:52:42;;;;;;;2.85;1.80;;;20.90;64.70;;;;;;5117317;28;20199;-85
2023/07/18 06:55:10;;;;;;;1.50;1.40;;;20.90;64.60;;;;;;5120029;28;20644;-85
2023/07/18 06:57:36;;;;;;;1.73;1.63;;;20.90;64.50;;;;;;5116630;28;20149;-85
2023/07/18 07:00:04;;;;;;;2.60;1.67;;;21.00;64.40;;;;;;5099124;28;20195;-85
2023/07/18 07:02:30;;;;;;;1.70;1.60;;;21.00;64.40;;;;;;5117211;28;20159;-85
2023/07/18 07:04:56;;;;;;;2.28;1.67;;;20.90;64.20;;;;;;5099500;28;20164;-87
2023/07/18 07:07:22;;;;;;;1.42;1.33;;;21.00;64.20;;;;;;5116195;28;20180;-85
2023/07/18 07:09:48;;;;;;;1.70;1.60;;;21.00;64.20;;;;;;5116161;28;20303;-85
2023/07/18 07:12:15;;;;;;;3.10;1.65;;;21.00;64.10;;;;;;5117210;28;20233;-86
2023/07/18 07:14:41;;;;;;;1.60;1.50;;;21.00;64.10;;;;;;5115707;28;20576;-85
2023/07/18 07:17:08;;;;;;;1.88;1.60;;;21.00;64.00;;;;;;5106785;28;20176;-85
2023/07/18 07:19:34;;;;;;;1.90;1.73;;;21.00;63.90;;;;;;5095914;28;20260;-86
2023/07/18 07:22:04;;;;;;;1.83;1.58;;;21.10;64.00;;;;;;5096696;28;20766;-84
2023/07/18 07:24:30;;;;;;;1.80;1.50;;;21.10;63.90;;;;;;5076138;28;20234;-86
2023/07/18 07:26:56;;;;;;;1.80;1.70;;;21.00;63.80;;;;;;5102107;28;20171;-86
2023/07/18 07:29:22;;;;;;;1.92;1.55;;;21.00;63.70;;;;;;5117400;28;20197;-84
2023/07/18 07:31:47;;;;;;;1.70;1.60;;;21.10;63.70;;;;;;5115674;28;20164;-84
2023/07/18 07:34:13;;;;;;;1.90;1.70;;;21.10;63.70;;;;;;5098366;28;20186;-87
2023/07/18 07:36:39;;;;;;;1.48;1.38;;;21.00;63.50;;;;;;5116489;28;20163;-84
2023/07/18 07:39:05;;;;;;;3.03;1.50;;;21.10;63.50;;;;;;5116427;28;20560;-85
2023/07/18 07:41:31;;;;;;;1.40;1.30;;;21.00;64.10;;;;;;5115138;28;20182;-86
2023/07/18 07:43:57;;;;;;;1.45;1.35;;;21.10;63.30;;;;;;5115938;28;20218;-84
2023/07/18 07:46:23;;;;;;;2.25;1.75;;;21.00;63.10;;;;;;5116259;28;20618;-87
2023/07/18 07:48:49;;;;;;;1.40;1.30;;;21.00;63.00;;;;;;5115347;28;20183;-87
2023/07/18 07:51:16;;;;;;;1.63;1.52;;;21.00;62.90;;;;;;5128066;27;20602;-84
2023/07/18 07:53:43;;;;;;;1.40;1.30;;;21.00;62.90;;;;;;5117533;27;20199;-87
2023/07/18 07:56:09;;;;;;;1.48;1.38;;;21.00;62.80;;;;;;5118941;27;20194;-85
2023/07/18 07:58:37;;;;;;;1.40;1.30;;;21.10;62.80;;;;;;5136810;27;20159;-87
2023/07/18 08:01:04;;;;;;;1.38;1.27;;;21.00;62.70;;;;;;5083797;27;20277;-87
2023/07/18 08:03:31;;;;;;;1.90;1.45;;;21.00;62.80;;;;;;5083605;27;20186;-84
2023/07/18 08:05:58;;;;;;;1.58;1.40;;;21.10;62.80;;;;;;5107335;28;20358;-83
2023/07/18 08:08:24;;;;;;;2.13;1.13;;;21.00;62.50;;;;;;5116022;28;20164;-85
2023/07/18 08:10:50;;;;;;;2.80;1.52;;;21.10;62.30;;;;;;5115026;28;20152;-83
2023/07/18 08:13:17;;;;;;;4.45;1.50;;;21.00;62.20;;;;;;5115829;28;20205;-83
2023/07/18 08:15:44;;;;;;;4.45;1.40;;;21.10;61.90;;;;;;5097899;28;20174;-84
2023/07/18 08:18:10;;;;;;;1.60;1.30;;;21.10;61.90;;;;;;5098504;28;20247;-84
2023/07/18 08:20:36;;;;;;;4.57;1.52;;;21.10;61.90;;;;;;5097996;28;20165;-85
2023/07/18 08:23:03;;;;;;;3.22;1.40;;;21.20;61.80;;;;;;5116226;28;20152;-84
2023/07/18 08:25:29;;;;;;;2.20;1.30;;;21.20;61.50;;;;;;5115504;28;20156;-85
2023/07/18 08:27:55;;;;;;;2.00;1.30;;;21.20;61.30;;;;;;5115858;28;20171;-84
2023/07/18 08:30:21;;;;;;;1.42;1.33;;;21.20;61.10;;;;;;5114365;28;20198;-85
2023/07/18 08:32:47;;;;;;;3.15;1.80;;;21.20;61.00;;;;;;5115886;28;20192;-84
2023/07/18 08:35:13;;;;;;;5.53;1.33;;;21.20;61.10;;;;;;5114748;28;20542;-87
2023/07/18 08:37:39;;;;;;;2.53;1.48;;;21.20;61.10;;;;;;5097727;28;20175;-85
2023/07/18 08:40:07;;;;;;;1.20;0.98;;;21.30;60.90;;;;;;5115859;28;20156;-87
2023/07/18 08:42:36;;;;;;;2.25;1.30;;;21.20;60.60;;;;;;5116822;28;20205;-83
2023/07/18 08:45:03;;;;;;;5.43;1.63;;;21.20;60.60;;;;;;5098773;28;20227;-86
2023/07/18 08:47:29;;;;;;;1.95;1.20;;;21.20;60.60;;;;;;5118938;28;20152;-83
2023/07/18 08:49:55;;;;;;;1.85;1.60;;;21.20;60.40;;;;;;5118887;27;20186;-82
2023/07/18 08:52:21;;;;;;;4.53;1.90;;;21.20;60.30;;;;;;5103469;27;20661;-85
2023/07/18 08:54:47;;;;;;;3.75;1.20;;;21.20;60.10;;;;;;5120249;27;20195;-86
2023/07/18 08:57:17;;;;;;;3.33;1.17;;;21.30;60.00;;;;;;5120409;27;20172;-84
2023/07/18 08:59:44;;;;;;;1.80;1.27;;;21.30;59.90;;;;;;5084968;27;20574;-83
2023/07/18 09:02:10;;;;;;;3.10;1.48;;;21.40;60.00;;;;;;5136831;27;20293;-83
2023/07/18 09:04:37;;;;;;;4.70;1.70;;;21.40;59.70;;;;;;5136879;27;20148;-86
2023/07/18 09:07:03;;;;;;;1.88;1.40;;;21.40;60.00;;;;;;5136007;27;20219;-85
2023/07/18 09:09:29;;;;;;;5.22;1.58;;;21.30;60.70;;;;;;5100416;27;20156;-86
2023/07/18 09:11:58;;;;;;;2.88;1.20;;;21.40;59.70;;;;;;5117639;27;20162;-83
2023/07/18 09:14:27;;;;;;;5.50;1.55;;;21.50;59.50;;;;;;5118532;27;20207;-86
2023/07/18 09:16:54;;;;;;;9.48;1.60;;;21.50;59.60;;;;;;5101316;27;20160;-84
2023/07/18 09:19:35;;;;;;;3.60;1.25;;;21.40;59.70;;;;;;5117106;27;20200;-87
2023/07/18 09:22:01;;;;;;;6.63;1.85;;;21.50;59.50;;;;;;5135694;27;20183;-84
2023/07/18 09:24:31;;;;;;;3.60;1.50;;;21.40;59.80;;;;;;5099895;27;20182;-84
2023/07/18 09:26:57;;;;;;;5.65;1.70;;;21.50;59.60;;;;;;5116649;27;20686;-88
2023/07/18 09:29:25;;;;;;;3.33;1.38;;;21.40;59.70;;;;;;5099706;27;20159;-85
2023/07/18 09:31:51;;;;;;;2.45;1.58;;;21.40;59.70;;;;;;5135016;27;20155;-86
2023/07/18 09:34:18;;;;;;;3.45;1.48;;;21.50;59.50;;;;;;5134852;27;20152;-83
2023/07/18 09:36:56;;;;;;;4.10;1.35;;;21.50;59.30;;;;;;5099521;27;20645;-84
2023/07/18 09:39:22;;;;;;;6.57;1.60;;;21.50;59.30;;;;;;5116683;27;20155;-83
2023/07/18 09:41:48;;;;;;;6.97;1.50;;;21.50;59.30;;;;;;5134546;27;20175;-84
2023/07/18 09:44:14;;;;;;;3.13;1.50;;;21.40;59.30;;;;;;5135070;27;20513;-85
2023/07/18 09:46:40;;;;;;;2.70;1.42;;;21.50;59.20;;;;;;5116166;27;20553;-83
2023/07/18 09:49:06;;;;;;;5.28;1.52;;;21.50;59.20;;;;;;5082465;27;20164;-83
2023/07/18 09:51:33;;;;;;;3.17;1.50;;;21.50;59.20;;;;;;5099365;27;20628;-86
2023/07/18 09:53:59;;;;;;;2.00;1.20;;;21.50;59.10;;;;;;5082359;27;20202;-85
2023/07/18 09:56:25;;;;;;;4.15;1.30;;;21.50;59.20;;;;;;5116176;27;20516;-82
2023/07/18 09:58:51;;;;;;;5.85;1.50;;;21.50;59.00;;;;;;5116046;27;20241;-84
2023/07/18 10:01:19;;;;;;;3.45;1.35;;;21.60;59.10;;;;;;5115813;27;20162;-86
2023/07/18 10:03:46;;;;;;;4.13;1.23;;;21.60;59.00;;;;;;5082956;28;20178;-85
2023/07/18 10:06:13;;;;;;;6.18;1.38;;;21.50;58.90;;;;;;5099000;27;20151;-84
2023/07/18 10:08:39;;;;;;;4.97;1.48;;;21.60;58.80;;;;;;5115971;27;20171;-83
2023/07/18 10:11:08;;;;;;;2.78;1.40;;;21.60;58.80;;;;;;5116450;27;20163;-88
2023/07/18 10:14:03;;;;;;;3.10;1.17;;;21.60;58.80;;;;;;5134478;28;20198;-86
2023/07/18 10:16:29;;;;;;;1.95;1.13;;;21.60;58.90;;;;;;5133641;27;20175;-83
2023/07/18 10:18:56;;;;;;;7.32;1.63;;;21.60;58.80;;;;;;5134421;28;20219;-87
2023/07/18 10:21:31;;;;;;;5.03;1.58;;;21.50;58.70;;;;;;5115902;28;20731;-84
2023/07/18 10:23:57;;;;;;;3.17;1.15;;;21.50;58.40;;;;;;5115934;28;20147;-86
2023/07/18 10:26:31;;;;;;;5.20;1.55;;;21.60;58.40;;;;;;5115990;28;20602;-87
2023/07/18 10:28:59;;;;;;;4.05;1.27;;;21.60;58.50;;;;;;5134305;28;20152;-84
2023/07/18 10:31:29;;;;;;;2.67;1.20;;;21.60;58.30;;;;;;5099241;28;20506;-85
2023/07/18 10:34:10;;;;;;;2.58;1.10;;;21.60;58.30;;;;;;5116081;28;20195;-87
2023/07/18 10:36:37;;;;;;;1.55;1.00;;;21.60;58.20;;;;;;5099371;28;20155;-87
2023/07/18 10:39:12;;;;;;;1.23;1.00;;;21.70;58.20;;;;;;5116163;28;20163;-87
2023/07/18 10:41:43;;;;;;;2.45;1.38;;;21.70;58.10;;;;;;5116225;28;20163;-87
2023/07/18 10:44:12;;;;;;;2.55;1.08;;;21.70;58.20;;;;;;5099333;28;20610;-83
2023/07/18 10:46:38;;;;;;;4.65;1.02;;;21.70;58.00;;;;;;5134358;28;20155;-86
2023/07/18 10:49:05;;;;;;;2.17;1.20;;;21.70;57.90;;;;;;5082479;28;20258;-88
2023/07/18 10:51:31;;;;;;;3.35;1.30;;;21.70;57.90;;;;;;5134067;28;20218;-87
2023/07/18 10:53:59;;;;;;;2.30;1.20;;;21.70;57.80;;;;;;5134201;28;20199;-88
2023/07/18 10:56:25;;;;;;;1.63;1.20;;;21.70;57.90;;;;;;5134853;28;20148;-83
2023/07/18 10:58:52;;;;;;;2.10;0.90;;;21.70;58.10;;;;;;5098854;28;20247;-86
2023/07/18 11:01:18;;;;;;;3.33;1.45;;;21.60;58.00;;;;;;5134091;28;20152;-88
2023/07/18 11:03:45;;;;;;;3.38;1.15;;;21.60;58.10;;;;;;5098708;28;20526;-86
2023/07/18 11:06:11;;;;;;;2.03;1.00;;;21.60;58.00;;;;;;5133917;28;20179;-86
2023/07/18 11:08:37;;;;;;;2.03;1.42;;;21.60;57.90;;;;;;5115607;28;20202;-86
2023/07/18 11:11:04;;;;;;;2.88;1.10;;;21.60;57.90;;;;;;5115551;28;20642;-86
2023/07/18 11:13:31;;;;;;;1.25;1.15;;;21.60;58.00;;;;;;5098497;28;20191;-87
2023/07/18 11:15:58;;;;;;;1.90;1.10;;;21.60;57.80;;;;;;5115641;28;20152;-87
2023/07/18 11:18:24;;;;;;;1.38;1.20;;;21.60;57.70;;;;;;5116257;28;20184;-89
2023/07/18 11:20:52;;;;;;;1.10;0.93;;;21.70;57.70;;;;;;5133844;28;20220;-83
2023/07/18 11:23:18;;;;;;;1.23;0.95;;;21.70;57.60;;;;;;5133882;28;20167;-87
2023/07/18 11:25:44;;;;;;;2.13;0.90;;;21.70;57.50;;;;;;5115426;28;20163;-86
2023/07/18 11:28:11;;;;;;;1.77;0.90;;;21.70;57.40;;;;;;5117093;27;20220;-85
2023/07/18 11:30:37;;;;;;;1.63;1.02;;;21.70;57.40;;;;;;5137339;27;20200;-84
2023/07/18 11:33:12;;;;;;;1.70;1.10;;;21.70;57.40;;;;;;5137553;27;20192;-87
2023/07/18 11:35:42;;;;;;;2.03;1.00;;;21.60;57.40;;;;;;5137328;27;20155;-85
2023/07/18 11:38:09;;;;;;;2.05;1.23;;;21.60;57.50;;;;;;5119202;27;20155;-85
2023/07/18 11:40:36;;;;;;;3.55;1.20;;;21.70;57.60;;;;;;5118847;27;20167;-85
2023/07/18 11:43:02;;;;;;;1.00;0.90;;;21.60;57.50;;;;;;5137138;27;20159;-87
2023/07/18 11:45:28;;;;;;;2.17;1.10;;;21.60;57.40;;;;;;5102495;27;20166;-87
2023/07/18 11:47:55;;;;;;;1.23;1.13;;;21.60;58.10;;;;;;5136915;27;20163;-86
2023/07/18 11:50:22;;;;;;;1.67;1.00;;;21.60;57.30;;;;;;5101240;27;20267;-82
2023/07/18 11:52:50;;;;;;;3.33;1.10;;;21.60;57.40;;;;;;5119370;27;20199;-86
2023/07/18 11:55:17;;;;;;;2.67;1.10;;;21.60;57.30;;;;;;5067003;27;20175;-87
2023/07/18 11:57:43;;;;;;;1.60;1.02;;;21.60;57.30;;;;;;5118673;27;20154;-82
2023/07/18 12:00:10;;;;;;;1.05;0.80;;;21.60;57.30;;;;;;5118619;27;20606;-88
2023/07/18 12:02:37;;;;;;;2.22;1.10;;;21.60;57.30;;;;;;5101722;27;20182;-84
2023/07/18 12:05:04;;;;;;;1.25;1.15;;;21.60;57.20;;;;;;5118940;27;20155;-87
2023/07/18 12:07:29;;;;;;;2.20;1.00;;;21.60;57.30;;;;;;5118428;27;20148;-88
2023/07/18 12:09:55;;;;;;;1.48;0.82;;;21.60;57.30;;;;;;5136484;27;20151;-85
2023/07/18 12:12:23;;;;;;;1.00;0.98;;;21.70;57.10;;;;;;5118040;27;20189;-87
2023/07/18 12:14:50;;;;;;;1.40;1.30;;;21.60;57.20;;;;;;5084611;27;20251;-88
2023/07/18 12:17:20;;;;;;;1.60;1.00;;;21.60;57.20;;;;;;5136456;27;20215;-86
2023/07/18 12:19:49;;;;;;;0.90;0.90;;;21.60;57.10;;;;;;5084104;27;20182;-85
2023/07/18 12:22:19;;;;;;;0.93;0.93;;;21.70;57.10;;;;;;5083627;27;20642;-87
2023/07/18 12:24:44;;;;;;;1.05;1.00;;;21.60;57.00;;;;;;5083504;27;20528;-86
2023/07/18 12:27:12;;;;;;;1.25;1.10;;;21.70;57.00;;;;;;5100955;27;20594;-85
2023/07/18 12:29:42;;;;;;;1.05;1.00;;;21.60;56.90;;;;;;5101795;27;20247;-83
2023/07/18 12:32:11;;;;;;;1.58;1.20;;;21.70;56.90;;;;;;5084106;27;20175;-84
2023/07/18 12:34:41;;;;;;;1.20;0.90;;;21.70;56.90;;;;;;5066803;27;20195;-85
2023/07/18 12:37:10;;;;;;;1.77;1.10;;;21.70;56.90;;;;;;5066565;27;20244;-83
2023/07/18 12:39:39;;;;;;;1.08;0.95;;;21.70;56.80;;;;;;5049537;27;20184;-82
2023/07/18 12:42:08;;;;;;;1.10;1.00;;;21.70;56.80;;;;;;5049529;27;20180;-86
2023/07/18 12:44:40;;;;;;;1.23;1.00;;;21.70;56.80;;;;;;5083129;27;20179;-84
2023/07/18 12:47:09;;;;;;;0.98;0.88;;;21.70;56.80;;;;;;5083844;27;20187;-83